sensor_id;sensor_type;location;lat;lon;timestamp;temperature;humidity
6690;DHT22;3382;51.576;8.076;2023-03-23T00:01:27;14.90;99.90
6690;DHT22;3382;51.576;8.076;2023-03-23T00:03:56;14.90;99.90
6690;DHT22;3382;51.576;8.076;2023-03-23T00:06:27;14.90;99.90
6690;DHT22;3382;51.576;8.076;2023-03-23T00:08:54;14.90;99.90
6690;DHT22;3382;51.576;8.076;2023-03-23T00:11:26;14.90;99.90
6690;DHT22;3382;51.576;8.076;2023-03-23T00:13:55;14.90;99.90
6690;DHT22;3382;51.576;8.076;2023-03-23T00:16:24;15.00;99.90
6690;DHT22;3382;51.576;8.076;2023-03-23T00:19:05;15.00;99.90
6690;DHT22;3382;51.576;8.076;2023-03-23T00:21:36;14.90;99.90
6690;DHT22;3382;51.576;8.076;2023-03-23T00:24:06;14.90;99.90
6690;DHT22;3382;51.576;8.076;2023-03-23T00:26:33;14.90;99.90
6690;DHT22;3382;51.576;8.076;2023-03-23T00:29:01;14.80;99.90
6690;DHT22;3382;51.576;8.076;2023-03-23T00:31:27;14.80;99.90
6690;DHT22;3382;51.576;8.076;2023-03-23T00:34:01;14.80;99.90
6690;DHT22;3382;51.576;8.076;2023-03-23T00:36:32;14.80;99.90
6690;DHT22;3382;51.576;8.076;2023-03-23T00:39:03;14.70;99.90
6690;DHT22;3382;51.576;8.076;2023-03-23T00:41:29;14.70;99.90
6690;DHT22;3382;51.576;8.076;2023-03-23T00:43:57;14.70;99.90
6690;DHT22;3382;51.576;8.076;2023-03-23T00:46:26;14.70;99.90
6690;DHT22;3382;51.576;8.076;2023-03-23T00:48:53;14.70;99.90
6690;DHT22;3382;51.576;8.076;2023-03-23T00:51:19;14.60;99.90
6690;DHT22;3382;51.576;8.076;2023-03-23T00:53:46;14.60;99.90
6690;DHT22;3382;51.576;8.076;2023-03-23T00:56:12;14.60;99.90
6690;DHT22;3382;51.576;8.076;2023-03-23T00:58:38;14.60;99.90
6690;DHT22;3382;51.576;8.076;2023-03-23T01:01:04;14.60;99.90
6690;DHT22;3382;51.576;8.076;2023-03-23T01:03:30;14.50;99.90
6690;DHT22;3382;51.576;8.076;2023-03-23T01:05:56;14.50;99.90
6690;DHT22;3382;51.576;8.076;2023-03-23T01:08:23;14.50;99.90
6690;DHT22;3382;51.576;8.076;2023-03-23T01:10:50;14.50;99.90
6690;DHT22;3382;51.576;8.076;2023-03-23T01:13:16;14.50;99.90
6690;DHT22;3382;51.576;8.076;2023-03-23T01:15:42;14.50;99.90
6690;DHT22;3382;51.576;8.076;2023-03-23T01:18:09;14.50;99.90
6690;DHT22;3382;51.576;8.076;2023-03-23T01:20:36;14.70;99.90
6690;DHT22;3382;51.576;8.076;2023-03-23T01:23:02;14.50;99.90
6690;DHT22;3382;51.576;8.076;2023-03-23T01:25:30;14.60;99.90
6690;DHT22;3382;51.576;8.076;2023-03-23T01:27:56;14.50;99.90
6690;DHT22;3382;51.576;8.076;2023-03-23T01:30:23;14.50;99.90
6690;DHT22;3382;51.576;8.076;2023-03-23T01:32:49;14.50;99.90
6690;DHT22;3382;51.576;8.076;2023-03-23T01:35:15;14.50;99.90
6690;DHT22;3382;51.576;8.076;2023-03-23T01:37:41;14.50;99.90
6690;DHT22;3382;51.576;8.076;2023-03-23T01:40:08;14.50;99.90
6690;DHT22;3382;51.576;8.076;2023-03-23T01:42:35;14.40;99.90
6690;DHT22;3382;51.576;8.076;2023-03-23T01:48:06;14.40;99.90
6690;DHT22;3382;51.576;8.076;2023-03-23T01:50:59;14.50;99.90
6690;DHT22;3382;51.576;8.076;2023-03-23T01:53:32;14.50;99.90
6690;DHT22;3382;51.576;8.076;2023-03-23T01:56:00;14.60;99.90
6690;DHT22;3382;51.576;8.076;2023-03-23T01:58:32;14.60;99.90
6690;DHT22;3382;51.576;8.076;2023-03-23T02:01:03;15.00;99.90
6690;DHT22;3382;51.576;8.076;2023-03-23T02:03:30;14.60;99.90
6690;DHT22;3382;51.576;8.076;2023-03-23T02:05:57;14.60;99.90
6690;DHT22;3382;51.576;8.076;2023-03-23T02:08:24;14.70;99.90
6690;DHT22;3382;51.576;8.076;2023-03-23T02:10:52;14.60;99.90
6690;DHT22;3382;51.576;8.076;2023-03-23T02:13:18;14.60;99.90
6690;DHT22;3382;51.576;8.076;2023-03-23T02:16:11;14.60;99.90
6690;DHT22;3382;51.576;8.076;2023-03-23T02:18:53;14.70;99.90
6690;DHT22;3382;51.576;8.076;2023-03-23T02:27:12;14.50;99.90
6690;DHT22;3382;51.576;8.076;2023-03-23T02:29:50;14.50;99.90
6690;DHT22;3382;51.576;8.076;2023-03-23T02:35:15;14.30;99.90
6690;DHT22;3382;51.576;8.076;2023-03-23T02:37:45;14.30;99.90
6690;DHT22;3382;51.576;8.076;2023-03-23T02:40:16;14.30;99.90
6690;DHT22;3382;51.576;8.076;2023-03-23T02:42:45;14.20;99.90
6690;DHT22;3382;51.576;8.076;2023-03-23T02:45:14;14.20;99.90
6690;DHT22;3382;51.576;8.076;2023-03-23T02:47:41;14.20;99.90
6690;DHT22;3382;51.576;8.076;2023-03-23T02:50:10;14.10;99.90
6690;DHT22;3382;51.576;8.076;2023-03-23T02:52:37;14.10;99.90
6690;DHT22;3382;51.576;8.076;2023-03-23T02:55:04;14.10;99.90
6690;DHT22;3382;51.576;8.076;2023-03-23T02:57:31;14.10;99.90
6690;DHT22;3382;51.576;8.076;2023-03-23T02:59:57;14.00;99.90
6690;DHT22;3382;51.576;8.076;2023-03-23T03:02:31;14.00;99.90
6690;DHT22;3382;51.576;8.076;2023-03-23T03:05:03;14.10;99.90
6690;DHT22;3382;51.576;8.076;2023-03-23T03:11:14;13.90;99.90
6690;DHT22;3382;51.576;8.076;2023-03-23T03:14:09;13.90;99.90
6690;DHT22;3382;51.576;8.076;2023-03-23T03:19:29;13.80;99.90
6690;DHT22;3382;51.576;8.076;2023-03-23T03:21:58;13.80;99.90
6690;DHT22;3382;51.576;8.076;2023-03-23T03:24:27;13.90;99.90
6690;DHT22;3382;51.576;8.076;2023-03-23T03:26:55;13.80;99.90
6690;DHT22;3382;51.576;8.076;2023-03-23T03:29:28;13.80;99.90
6690;DHT22;3382;51.576;8.076;2023-03-23T03:31:56;13.80;99.90
6690;DHT22;3382;51.576;8.076;2023-03-23T03:34:24;13.70;99.90
6690;DHT22;3382;51.576;8.076;2023-03-23T03:36:52;13.80;99.90
6690;DHT22;3382;51.576;8.076;2023-03-23T03:39:19;13.70;99.90
6690;DHT22;3382;51.576;8.076;2023-03-23T03:41:46;13.70;99.90
6690;DHT22;3382;51.576;8.076;2023-03-23T03:44:12;13.70;99.90
6690;DHT22;3382;51.576;8.076;2023-03-23T03:46:37;13.90;99.90
6690;DHT22;3382;51.576;8.076;2023-03-23T03:49:09;13.60;99.90
6690;DHT22;3382;51.576;8.076;2023-03-23T03:51:37;13.60;99.90
6690;DHT22;3382;51.576;8.076;2023-03-23T03:54:03;13.60;99.90
6690;DHT22;3382;51.576;8.076;2023-03-23T03:56:29;13.60;99.90
6690;DHT22;3382;51.576;8.076;2023-03-23T03:58:56;13.60;99.90
6690;DHT22;3382;51.576;8.076;2023-03-23T04:01:23;13.70;99.90
6690;DHT22;3382;51.576;8.076;2023-03-23T04:03:49;13.60;99.90
6690;DHT22;3382;51.576;8.076;2023-03-23T04:06:16;13.50;99.90
6690;DHT22;3382;51.576;8.076;2023-03-23T04:08:43;13.60;99.90
6690;DHT22;3382;51.576;8.076;2023-03-23T04:11:11;13.50;99.90
6690;DHT22;3382;51.576;8.076;2023-03-23T04:13:38;13.50;99.90
6690;DHT22;3382;51.576;8.076;2023-03-23T04:16:04;13.50;99.90
6690;DHT22;3382;51.576;8.076;2023-03-23T04:18:30;13.40;99.90
6690;DHT22;3382;51.576;8.076;2023-03-23T04:20:58;13.40;99.90
6690;DHT22;3382;51.576;8.076;2023-03-23T04:23:26;13.50;99.90
6690;DHT22;3382;51.576;8.076;2023-03-23T04:25:52;13.40;99.90
6690;DHT22;3382;51.576;8.076;2023-03-23T04:28:23;13.40;99.90
6690;DHT22;3382;51.576;8.076;2023-03-23T04:30:50;13.60;99.90
6690;DHT22;3382;51.576;8.076;2023-03-23T04:33:20;13.50;99.90
6690;DHT22;3382;51.576;8.076;2023-03-23T04:35:46;13.40;99.90
6690;DHT22;3382;51.576;8.076;2023-03-23T04:38:14;13.60;99.90
6690;DHT22;3382;51.576;8.076;2023-03-23T04:40:44;13.40;99.90
6690;DHT22;3382;51.576;8.076;2023-03-23T04:43:10;13.40;99.90
6690;DHT22;3382;51.576;8.076;2023-03-23T04:45:37;13.40;99.90
6690;DHT22;3382;51.576;8.076;2023-03-23T04:48:07;13.50;99.90
6690;DHT22;3382;51.576;8.076;2023-03-23T04:50:34;13.40;99.90
6690;DHT22;3382;51.576;8.076;2023-03-23T04:53:00;13.50;99.90
6690;DHT22;3382;51.576;8.076;2023-03-23T04:55:34;13.50;99.90
6690;DHT22;3382;51.576;8.076;2023-03-23T04:58:06;14.00;99.90
6690;DHT22;3382;51.576;8.076;2023-03-23T05:00:33;13.70;99.90
6690;DHT22;3382;51.576;8.076;2023-03-23T05:02:59;14.00;99.90
6690;DHT22;3382;51.576;8.076;2023-03-23T05:05:26;14.10;99.90
6690;DHT22;3382;51.576;8.076;2023-03-23T05:07:53;14.20;99.90
6690;DHT22;3382;51.576;8.076;2023-03-23T05:10:19;14.30;99.90
6690;DHT22;3382;51.576;8.076;2023-03-23T05:12:44;14.30;99.90
6690;DHT22;3382;51.576;8.076;2023-03-23T05:15:12;14.30;99.90
6690;DHT22;3382;51.576;8.076;2023-03-23T05:17:39;14.40;99.90
6690;DHT22;3382;51.576;8.076;2023-03-23T05:20:06;14.50;99.90
6690;DHT22;3382;51.576;8.076;2023-03-23T05:22:37;14.40;99.90
6690;DHT22;3382;51.576;8.076;2023-03-23T05:25:04;14.60;99.90
6690;DHT22;3382;51.576;8.076;2023-03-23T05:27:30;14.70;99.90
6690;DHT22;3382;51.576;8.076;2023-03-23T05:29:58;14.70;99.90
6690;DHT22;3382;51.576;8.076;2023-03-23T05:32:27;14.70;99.90
6690;DHT22;3382;51.576;8.076;2023-03-23T05:35:00;14.70;99.90
6690;DHT22;3382;51.576;8.076;2023-03-23T05:37:27;14.60;99.90
6690;DHT22;3382;51.576;8.076;2023-03-23T05:40:00;14.70;99.90
6690;DHT22;3382;51.576;8.076;2023-03-23T05:42:33;14.70;99.90
6690;DHT22;3382;51.576;8.076;2023-03-23T05:45:00;14.70;99.90
6690;DHT22;3382;51.576;8.076;2023-03-23T05:47:26;14.70;99.90
6690;DHT22;3382;51.576;8.076;2023-03-23T05:49:52;14.80;99.90
6690;DHT22;3382;51.576;8.076;2023-03-23T05:52:19;15.00;99.90
6690;DHT22;3382;51.576;8.076;2023-03-23T05:54:44;14.90;99.90
6690;DHT22;3382;51.576;8.076;2023-03-23T05:57:10;15.10;99.90
6690;DHT22;3382;51.576;8.076;2023-03-23T05:59:36;15.60;99.90
6690;DHT22;3382;51.576;8.076;2023-03-23T06:02:02;15.60;99.90
6690;DHT22;3382;51.576;8.076;2023-03-23T06:04:28;15.90;99.90
6690;DHT22;3382;51.576;8.076;2023-03-23T06:06:54;16.30;99.90
6690;DHT22;3382;51.576;8.076;2023-03-23T06:09:20;16.70;99.90
6690;DHT22;3382;51.576;8.076;2023-03-23T06:11:46;16.90;99.90
6690;DHT22;3382;51.576;8.076;2023-03-23T06:14:13;17.20;99.90
6690;DHT22;3382;51.576;8.076;2023-03-23T06:16:38;17.50;99.90
6690;DHT22;3382;51.576;8.076;2023-03-23T06:19:04;17.70;99.90
6690;DHT22;3382;51.576;8.076;2023-03-23T06:21:30;17.80;99.90
6690;DHT22;3382;51.576;8.076;2023-03-23T06:23:57;17.60;99.90
6690;DHT22;3382;51.576;8.076;2023-03-23T06:26:28;17.50;99.90
6690;DHT22;3382;51.576;8.076;2023-03-23T06:28:56;17.20;99.90
6690;DHT22;3382;51.576;8.076;2023-03-23T06:31:23;17.00;99.90
6690;DHT22;3382;51.576;8.076;2023-03-23T06:33:49;17.00;99.90
6690;DHT22;3382;51.576;8.076;2023-03-23T06:36:15;17.60;99.90
6690;DHT22;3382;51.576;8.076;2023-03-23T06:38:42;17.80;99.90
6690;DHT22;3382;51.576;8.076;2023-03-23T06:41:07;17.60;99.90
6690;DHT22;3382;51.576;8.076;2023-03-23T06:43:34;17.70;99.90
6690;DHT22;3382;51.576;8.076;2023-03-23T06:46:01;17.30;99.90
6690;DHT22;3382;51.576;8.076;2023-03-23T06:48:27;17.20;99.90
6690;DHT22;3382;51.576;8.076;2023-03-23T06:50:53;17.10;99.90
6690;DHT22;3382;51.576;8.076;2023-03-23T06:53:19;16.80;99.90
6690;DHT22;3382;51.576;8.076;2023-03-23T06:55:46;16.60;99.90
6690;DHT22;3382;51.576;8.076;2023-03-23T06:58:12;16.50;99.90
6690;DHT22;3382;51.576;8.076;2023-03-23T07:00:38;16.50;99.90
6690;DHT22;3382;51.576;8.076;2023-03-23T07:03:05;16.40;99.90
6690;DHT22;3382;51.576;8.076;2023-03-23T07:05:32;16.50;99.90
6690;DHT22;3382;51.576;8.076;2023-03-23T07:07:58;16.50;99.90
6690;DHT22;3382;51.576;8.076;2023-03-23T07:10:23;16.50;99.90
6690;DHT22;3382;51.576;8.076;2023-03-23T07:12:50;16.50;99.90
6690;DHT22;3382;51.576;8.076;2023-03-23T07:15:15;16.40;99.90
6690;DHT22;3382;51.576;8.076;2023-03-23T07:17:41;16.40;99.90
6690;DHT22;3382;51.576;8.076;2023-03-23T07:20:07;16.30;99.90
6690;DHT22;3382;51.576;8.076;2023-03-23T07:22:33;16.40;99.90
6690;DHT22;3382;51.576;8.076;2023-03-23T07:24:59;16.40;99.90
6690;DHT22;3382;51.576;8.076;2023-03-23T07:27:25;16.30;99.90
6690;DHT22;3382;51.576;8.076;2023-03-23T07:29:51;16.30;99.90
6690;DHT22;3382;51.576;8.076;2023-03-23T07:32:17;16.50;99.90
6690;DHT22;3382;51.576;8.076;2023-03-23T07:34:42;16.50;99.90
6690;DHT22;3382;51.576;8.076;2023-03-23T07:37:09;16.30;99.90
6690;DHT22;3382;51.576;8.076;2023-03-23T07:39:35;16.30;99.90
6690;DHT22;3382;51.576;8.076;2023-03-23T07:42:01;16.30;99.90
6690;DHT22;3382;51.576;8.076;2023-03-23T07:44:27;16.30;99.90
6690;DHT22;3382;51.576;8.076;2023-03-23T07:46:53;16.20;99.90
6690;DHT22;3382;51.576;8.076;2023-03-23T07:49:18;16.30;99.90
6690;DHT22;3382;51.576;8.076;2023-03-23T07:51:45;16.40;99.90
6690;DHT22;3382;51.576;8.076;2023-03-23T07:54:11;16.40;99.90
6690;DHT22;3382;51.576;8.076;2023-03-23T07:56:37;16.50;99.90
6690;DHT22;3382;51.576;8.076;2023-03-23T07:59:06;16.50;99.90
6690;DHT22;3382;51.576;8.076;2023-03-23T08:01:32;16.70;99.90
6690;DHT22;3382;51.576;8.076;2023-03-23T08:03:58;17.10;99.90
6690;DHT22;3382;51.576;8.076;2023-03-23T08:06:24;16.80;99.90
6690;DHT22;3382;51.576;8.076;2023-03-23T08:08:50;16.80;99.90
6690;DHT22;3382;51.576;8.076;2023-03-23T08:11:16;16.60;99.90
6690;DHT22;3382;51.576;8.076;2023-03-23T08:13:42;16.80;99.90
6690;DHT22;3382;51.576;8.076;2023-03-23T08:16:09;16.80;99.90
6690;DHT22;3382;51.576;8.076;2023-03-23T08:18:36;16.80;99.90
6690;DHT22;3382;51.576;8.076;2023-03-23T08:21:03;17.00;99.90
6690;DHT22;3382;51.576;8.076;2023-03-23T08:23:30;17.20;99.90
6690;DHT22;3382;51.576;8.076;2023-03-23T08:25:56;17.40;99.90
6690;DHT22;3382;51.576;8.076;2023-03-23T08:28:22;17.70;99.90
6690;DHT22;3382;51.576;8.076;2023-03-23T08:30:48;17.70;99.90
6690;DHT22;3382;51.576;8.076;2023-03-23T08:33:14;17.80;99.90
6690;DHT22;3382;51.576;8.076;2023-03-23T08:35:39;17.80;99.90
6690;DHT22;3382;51.576;8.076;2023-03-23T08:38:05;17.80;99.90
6690;DHT22;3382;51.576;8.076;2023-03-23T08:40:31;17.90;99.90
6690;DHT22;3382;51.576;8.076;2023-03-23T08:42:57;17.90;99.90
6690;DHT22;3382;51.576;8.076;2023-03-23T08:45:24;17.90;99.90
6690;DHT22;3382;51.576;8.076;2023-03-23T08:47:50;17.90;99.90
6690;DHT22;3382;51.576;8.076;2023-03-23T08:50:27;17.80;99.90
6690;DHT22;3382;51.576;8.076;2023-03-23T08:52:53;17.90;99.90
6690;DHT22;3382;51.576;8.076;2023-03-23T08:55:20;18.10;99.90
6690;DHT22;3382;51.576;8.076;2023-03-23T08:57:47;18.10;99.90
6690;DHT22;3382;51.576;8.076;2023-03-23T09:00:17;18.10;99.90
6690;DHT22;3382;51.576;8.076;2023-03-23T09:02:48;17.90;99.90
6690;DHT22;3382;51.576;8.076;2023-03-23T09:05:16;18.10;99.90
6690;DHT22;3382;51.576;8.076;2023-03-23T09:07:45;18.40;99.90
6690;DHT22;3382;51.576;8.076;2023-03-23T09:10:12;18.50;99.90
6690;DHT22;3382;51.576;8.076;2023-03-23T09:12:39;18.60;99.90
6690;DHT22;3382;51.576;8.076;2023-03-23T09:15:06;18.70;99.90
6690;DHT22;3382;51.576;8.076;2023-03-23T09:17:48;18.20;99.90
6690;DHT22;3382;51.576;8.076;2023-03-23T09:20:16;18.30;99.90
6690;DHT22;3382;51.576;8.076;2023-03-23T09:22:45;18.50;99.90
6690;DHT22;3382;51.576;8.076;2023-03-23T09:25:14;18.70;99.90
6690;DHT22;3382;51.576;8.076;2023-03-23T09:27:41;18.90;99.90
6690;DHT22;3382;51.576;8.076;2023-03-23T09:30:09;19.10;99.90
6690;DHT22;3382;51.576;8.076;2023-03-23T09:32:36;19.40;99.90
6690;DHT22;3382;51.576;8.076;2023-03-23T09:35:04;19.40;99.90
6690;DHT22;3382;51.576;8.076;2023-03-23T09:37:32;19.30;99.90
6690;DHT22;3382;51.576;8.076;2023-03-23T09:39:59;19.40;99.90
6690;DHT22;3382;51.576;8.076;2023-03-23T09:42:46;19.30;99.90
6690;DHT22;3382;51.576;8.076;2023-03-23T09:45:25;19.40;99.90
6690;DHT22;3382;51.576;8.076;2023-03-23T09:50:31;19.80;99.90
6690;DHT22;3382;51.576;8.076;2023-03-23T09:53:07;19.80;99.90
6690;DHT22;3382;51.576;8.076;2023-03-23T09:55:35;19.70;99.90
6690;DHT22;3382;51.576;8.076;2023-03-23T09:58:24;19.90;99.90
6690;DHT22;3382;51.576;8.076;2023-03-23T10:01:02;20.20;99.90
6690;DHT22;3382;51.576;8.076;2023-03-23T10:03:40;20.30;99.90
6690;DHT22;3382;51.576;8.076;2023-03-23T10:06:12;20.20;99.90
6690;DHT22;3382;51.576;8.076;2023-03-23T10:08:45;20.10;99.90
6690;DHT22;3382;51.576;8.076;2023-03-23T10:11:31;20.10;99.90
6690;DHT22;3382;51.576;8.076;2023-03-23T10:16:40;20.20;99.90
6690;DHT22;3382;51.576;8.076;2023-03-23T10:19:12;20.20;99.90
6690;DHT22;3382;51.576;8.076;2023-03-23T10:21:45;20.10;99.90
6690;DHT22;3382;51.576;8.076;2023-03-23T10:24:16;20.20;99.90
6690;DHT22;3382;51.576;8.076;2023-03-23T10:29:20;20.40;99.90
6690;DHT22;3382;51.576;8.076;2023-03-23T10:31:52;20.30;99.90
6690;DHT22;3382;51.576;8.076;2023-03-23T10:37:21;20.00;99.90
6690;DHT22;3382;51.576;8.076;2023-03-23T10:39:51;20.00;99.90
6690;DHT22;3382;51.576;8.076;2023-03-23T10:42:37;19.70;99.90
6690;DHT22;3382;51.576;8.076;2023-03-23T10:45:30;19.70;99.90
6690;DHT22;3382;51.576;8.076;2023-03-23T10:48:31;20.00;99.90
6690;DHT22;3382;51.576;8.076;2023-03-23T10:51:02;19.90;99.90
6690;DHT22;3382;51.576;8.076;2023-03-23T10:53:33;20.00;99.90
6690;DHT22;3382;51.576;8.076;2023-03-23T10:56:00;20.00;99.90
6690;DHT22;3382;51.576;8.076;2023-03-23T10:58:31;20.00;99.90
6690;DHT22;3382;51.576;8.076;2023-03-23T11:01:03;20.10;99.90
6690;DHT22;3382;51.576;8.076;2023-03-23T11:06:20;20.30;99.90
6690;DHT22;3382;51.576;8.076;2023-03-23T11:11:29;20.40;99.90
6690;DHT22;3382;51.576;8.076;2023-03-23T11:14:12;20.20;99.90
6690;DHT22;3382;51.576;8.076;2023-03-23T11:16:45;20.10;99.90
6690;DHT22;3382;51.576;8.076;2023-03-23T11:19:14;20.40;99.90
6690;DHT22;3382;51.576;8.076;2023-03-23T11:21:40;20.70;99.90
6690;DHT22;3382;51.576;8.076;2023-03-23T11:24:11;20.90;99.90
6690;DHT22;3382;51.576;8.076;2023-03-23T11:26:37;21.00;99.90
6690;DHT22;3382;51.576;8.076;2023-03-23T11:29:10;21.00;99.90
6690;DHT22;3382;51.576;8.076;2023-03-23T11:32:09;20.90;99.90
6690;DHT22;3382;51.576;8.076;2023-03-23T11:34:41;20.60;99.90
6690;DHT22;3382;51.576;8.076;2023-03-23T11:37:33;20.20;99.90
6690;DHT22;3382;51.576;8.076;2023-03-23T11:45:39;19.90;99.90
6690;DHT22;3382;51.576;8.076;2023-03-23T11:50:58;20.20;99.90
6690;DHT22;3382;51.576;8.076;2023-03-23T11:56:34;20.20;99.90
6690;DHT22;3382;51.576;8.076;2023-03-23T11:59:00;20.00;99.90
6690;DHT22;3382;51.576;8.076;2023-03-23T12:07:35;19.80;99.90
6690;DHT22;3382;51.576;8.076;2023-03-23T12:18:49;19.30;99.90
6690;DHT22;3382;51.576;8.076;2023-03-23T12:21:51;19.20;99.90
6690;DHT22;3382;51.576;8.076;2023-03-23T12:27:47;19.10;99.90
6690;DHT22;3382;51.576;8.076;2023-03-23T12:30:39;18.90;99.90
6690;DHT22;3382;51.576;8.076;2023-03-23T12:42:11;17.90;99.90
6690;DHT22;3382;51.576;8.076;2023-03-23T12:44:48;17.60;99.90
6690;DHT22;3382;51.576;8.076;2023-03-23T12:47:33;17.50;99.90
6690;DHT22;3382;51.576;8.076;2023-03-23T12:53:01;17.50;99.90
6690;DHT22;3382;51.576;8.076;2023-03-23T12:55:47;17.20;99.90
6690;DHT22;3382;51.576;8.076;2023-03-23T12:58:22;17.10;99.90
6690;DHT22;3382;51.576;8.076;2023-03-23T13:01:28;17.10;99.90
6690;DHT22;3382;51.576;8.076;2023-03-23T13:06:37;17.00;99.90
6690;DHT22;3382;51.576;8.076;2023-03-23T13:11:44;16.70;99.90
6690;DHT22;3382;51.576;8.076;2023-03-23T13:19:54;17.00;99.90
6690;DHT22;3382;51.576;8.076;2023-03-23T13:25:19;16.90;99.90
6690;DHT22;3382;51.576;8.076;2023-03-23T13:27:57;16.80;99.90
6690;DHT22;3382;51.576;8.076;2023-03-23T13:30:24;16.50;99.90
6690;DHT22;3382;51.576;8.076;2023-03-23T13:32:51;16.30;99.90
6690;DHT22;3382;51.576;8.076;2023-03-23T13:35:19;16.30;99.90
6690;DHT22;3382;51.576;8.076;2023-03-23T13:37:51;16.60;99.90
6690;DHT22;3382;51.576;8.076;2023-03-23T13:40:30;16.80;99.90
6690;DHT22;3382;51.576;8.076;2023-03-23T13:42:59;16.50;99.90
6690;DHT22;3382;51.576;8.076;2023-03-23T13:48:18;16.30;99.90
6690;DHT22;3382;51.576;8.076;2023-03-23T13:55:51;16.50;99.90
6690;DHT22;3382;51.576;8.076;2023-03-23T13:58:28;16.30;99.90
6690;DHT22;3382;51.576;8.076;2023-03-23T14:08:36;15.90;99.90
6690;DHT22;3382;51.576;8.076;2023-03-23T14:14:06;15.80;99.90
6690;DHT22;3382;51.576;8.076;2023-03-23T14:16:40;15.70;99.90
6690;DHT22;3382;51.576;8.076;2023-03-23T14:19:27;15.50;99.90
6690;DHT22;3382;51.576;8.076;2023-03-23T14:22:01;15.50;99.90
6690;DHT22;3382;51.576;8.076;2023-03-23T14:24:32;15.60;99.90
6690;DHT22;3382;51.576;8.076;2023-03-23T14:29:33;15.70;99.90
6690;DHT22;3382;51.576;8.076;2023-03-23T14:31:59;15.80;99.90
6690;DHT22;3382;51.576;8.076;2023-03-23T14:34:27;15.80;99.90
6690;DHT22;3382;51.576;8.076;2023-03-23T14:36:54;15.70;99.90
6690;DHT22;3382;51.576;8.076;2023-03-23T14:39:32;15.70;99.90
6690;DHT22;3382;51.576;8.076;2023-03-23T14:42:16;15.60;99.90
6690;DHT22;3382;51.576;8.076;2023-03-23T14:44:44;16.10;99.90
6690;DHT22;3382;51.576;8.076;2023-03-23T14:47:36;16.70;99.90
6690;DHT22;3382;51.576;8.076;2023-03-23T14:50:06;17.30;99.90
6690;DHT22;3382;51.576;8.076;2023-03-23T14:52:35;17.50;99.90
6690;DHT22;3382;51.576;8.076;2023-03-23T14:55:13;17.20;99.90
6690;DHT22;3382;51.576;8.076;2023-03-23T14:57:42;16.90;99.90
6690;DHT22;3382;51.576;8.076;2023-03-23T15:02:40;16.70;99.90
6690;DHT22;3382;51.576;8.076;2023-03-23T15:07:56;16.70;99.90
6690;DHT22;3382;51.576;8.076;2023-03-23T15:10:24;16.40;99.90
6690;DHT22;3382;51.576;8.076;2023-03-23T15:12:51;16.20;99.90
6690;DHT22;3382;51.576;8.076;2023-03-23T15:15:27;16.00;99.90
6690;DHT22;3382;51.576;8.076;2023-03-23T15:17:54;16.00;99.90
6690;DHT22;3382;51.576;8.076;2023-03-23T15:22:52;15.80;99.90
6690;DHT22;3382;51.576;8.076;2023-03-23T15:27:57;15.60;99.90
6690;DHT22;3382;51.576;8.076;2023-03-23T15:32:54;15.60;99.90
6690;DHT22;3382;51.576;8.076;2023-03-23T15:35:23;15.70;99.90
6690;DHT22;3382;51.576;8.076;2023-03-23T15:37:58;15.80;99.90
6690;DHT22;3382;51.576;8.076;2023-03-23T15:40:25;16.10;99.90
6690;DHT22;3382;51.576;8.076;2023-03-23T15:43:19;16.20;99.90
6690;DHT22;3382;51.576;8.076;2023-03-23T15:48:22;17.30;99.90
6690;DHT22;3382;51.576;8.076;2023-03-23T15:50:49;17.70;99.90
6690;DHT22;3382;51.576;8.076;2023-03-23T15:55:53;18.40;99.90
6690;DHT22;3382;51.576;8.076;2023-03-23T15:58:18;18.80;99.90
6690;DHT22;3382;51.576;8.076;2023-03-23T16:00:45;19.00;99.90
6690;DHT22;3382;51.576;8.076;2023-03-23T16:03:21;19.20;99.90
6690;DHT22;3382;51.576;8.076;2023-03-23T16:05:49;19.40;99.90
6690;DHT22;3382;51.576;8.076;2023-03-23T16:08:15;19.70;99.90
6690;DHT22;3382;51.576;8.076;2023-03-23T16:10:41;19.70;99.90
6690;DHT22;3382;51.576;8.076;2023-03-23T16:13:06;20.00;99.90
6690;DHT22;3382;51.576;8.076;2023-03-23T16:15:32;20.10;99.90
6690;DHT22;3382;51.576;8.076;2023-03-23T16:17:58;20.20;99.90
6690;DHT22;3382;51.576;8.076;2023-03-23T16:20:24;20.40;99.90
6690;DHT22;3382;51.576;8.076;2023-03-23T16:22:50;20.50;99.90
6690;DHT22;3382;51.576;8.076;2023-03-23T16:25:17;20.60;99.90
6690;DHT22;3382;51.576;8.076;2023-03-23T16:27:43;20.30;99.90
6690;DHT22;3382;51.576;8.076;2023-03-23T16:30:21;20.30;99.90
6690;DHT22;3382;51.576;8.076;2023-03-23T16:32:47;20.40;99.90
6690;DHT22;3382;51.576;8.076;2023-03-23T16:35:14;20.50;99.90
6690;DHT22;3382;51.576;8.076;2023-03-23T16:37:44;20.70;99.90
6690;DHT22;3382;51.576;8.076;2023-03-23T16:40:11;20.70;99.90
6690;DHT22;3382;51.576;8.076;2023-03-23T16:42:37;20.50;99.90
6690;DHT22;3382;51.576;8.076;2023-03-23T16:45:02;20.50;99.90
6690;DHT22;3382;51.576;8.076;2023-03-23T16:47:28;20.60;99.90
6690;DHT22;3382;51.576;8.076;2023-03-23T16:49:54;20.60;99.90
6690;DHT22;3382;51.576;8.076;2023-03-23T16:52:19;20.70;99.90
6690;DHT22;3382;51.576;8.076;2023-03-23T16:54:45;20.80;99.90
6690;DHT22;3382;51.576;8.076;2023-03-23T16:57:11;20.80;99.90
6690;DHT22;3382;51.576;8.076;2023-03-23T16:59:37;20.50;99.90
6690;DHT22;3382;51.576;8.076;2023-03-23T17:02:06;19.90;99.90
6690;DHT22;3382;51.576;8.076;2023-03-23T17:04:32;19.40;99.90
6690;DHT22;3382;51.576;8.076;2023-03-23T17:06:58;18.90;99.90
6690;DHT22;3382;51.576;8.076;2023-03-23T17:09:25;18.60;99.90
6690;DHT22;3382;51.576;8.076;2023-03-23T17:11:52;18.30;99.90
6690;DHT22;3382;51.576;8.076;2023-03-23T17:14:18;18.10;99.90
6690;DHT22;3382;51.576;8.076;2023-03-23T17:16:44;17.70;99.90
6690;DHT22;3382;51.576;8.076;2023-03-23T17:19:10;17.40;99.90
6690;DHT22;3382;51.576;8.076;2023-03-23T17:21:38;17.10;99.90
6690;DHT22;3382;51.576;8.076;2023-03-23T17:24:05;16.80;99.90
6690;DHT22;3382;51.576;8.076;2023-03-23T17:26:30;16.60;99.90
6690;DHT22;3382;51.576;8.076;2023-03-23T17:28:56;16.40;99.90
6690;DHT22;3382;51.576;8.076;2023-03-23T17:31:22;16.10;99.90
6690;DHT22;3382;51.576;8.076;2023-03-23T17:33:47;16.10;99.90
6690;DHT22;3382;51.576;8.076;2023-03-23T17:36:14;15.80;99.90
6690;DHT22;3382;51.576;8.076;2023-03-23T17:38:39;15.70;99.90
6690;DHT22;3382;51.576;8.076;2023-03-23T17:41:05;15.60;99.90
6690;DHT22;3382;51.576;8.076;2023-03-23T17:43:32;15.50;99.90
6690;DHT22;3382;51.576;8.076;2023-03-23T17:45:59;15.40;99.90
6690;DHT22;3382;51.576;8.076;2023-03-23T17:48:25;15.30;99.90
6690;DHT22;3382;51.576;8.076;2023-03-23T17:50:53;15.20;99.90
6690;DHT22;3382;51.576;8.076;2023-03-23T17:53:25;15.10;99.90
6690;DHT22;3382;51.576;8.076;2023-03-23T17:55:51;14.90;99.90
6690;DHT22;3382;51.576;8.076;2023-03-23T17:58:17;14.90;99.90
6690;DHT22;3382;51.576;8.076;2023-03-23T18:00:43;14.80;99.90
6690;DHT22;3382;51.576;8.076;2023-03-23T18:03:09;14.70;99.90
6690;DHT22;3382;51.576;8.076;2023-03-23T18:05:35;14.60;99.90
6690;DHT22;3382;51.576;8.076;2023-03-23T18:08:06;14.50;99.90
6690;DHT22;3382;51.576;8.076;2023-03-23T18:10:32;14.50;99.90
6690;DHT22;3382;51.576;8.076;2023-03-23T18:13:00;14.40;99.90
6690;DHT22;3382;51.576;8.076;2023-03-23T18:15:26;14.40;99.90
6690;DHT22;3382;51.576;8.076;2023-03-23T18:17:53;14.30;99.90
6690;DHT22;3382;51.576;8.076;2023-03-23T18:20:20;14.20;99.90
6690;DHT22;3382;51.576;8.076;2023-03-23T18:22:46;14.30;99.90
6690;DHT22;3382;51.576;8.076;2023-03-23T18:25:13;14.10;99.90